Time;durP1;ratioP1;P1;durP2;ratioP2;P2;SDS_P1;SDS_P2;PMS_P1;PMS_P2;Temp;Humidity;BMP_temperature;BMP_pressure;BME280_temperature;BME280_humidity;BME280_pressure;Samples;Min_cycle;Max_cycle;Signal;HPM_P1;HPM_P2
2022/03/05 00:00:51;;;;;;;7.95;5.95;;;4.90;83.30;;;;;;1873022;77;21102;-48
2022/03/05 00:03:21;;;;;;;8.73;5.83;;;4.90;83.30;;;;;;1872991;76;21036;-46
2022/03/05 00:05:50;;;;;;;10.68;6.72;;;4.90;83.20;;;;;;1872933;77;21123;-46
2022/03/05 00:08:20;;;;;;;10.78;6.62;;;4.90;83.40;;;;;;1872932;77;21067;-46
2022/03/05 00:10:49;;;;;;;7.35;5.62;;;4.90;83.50;;;;;;1873020;77;21094;-47
2022/03/05 00:13:19;;;;;;;10.05;6.47;;;4.90;83.60;;;;;;1878095;76;21063;-48
2022/03/05 00:15:48;;;;;;;14.20;6.37;;;4.90;83.60;;;;;;1882246;76;21032;-47
2022/03/05 00:18:18;;;;;;;8.68;6.08;;;5.00;83.70;;;;;;1882473;76;21127;-47
2022/03/05 00:20:47;;;;;;;10.45;6.45;;;4.90;83.60;;;;;;1882408;76;21036;-47
2022/03/05 00:23:18;;;;;;;8.63;5.90;;;5.00;83.40;;;;;;1882499;76;21103;-46
2022/03/05 00:25:47;;;;;;;10.82;6.42;;;5.00;83.60;;;;;;1882471;76;21131;-46
2022/03/05 00:28:18;;;;;;;8.50;5.80;;;4.90;83.70;;;;;;1882344;76;21032;-47
2022/03/05 00:30:47;;;;;;;5.45;4.15;;;4.90;83.40;;;;;;1882387;76;21102;-48
2022/03/05 00:33:19;;;;;;;7.10;5.53;;;4.90;83.20;;;;;;1882261;76;21075;-47
2022/03/05 00:35:47;;;;;;;9.98;6.40;;;4.90;83.40;;;;;;1882433;75;21102;-46
2022/03/05 00:38:16;;;;;;;10.60;5.95;;;4.90;84.30;;;;;;1882341;76;21139;-46
2022/03/05 00:40:46;;;;;;;10.18;6.37;;;4.90;83.70;;;;;;1882399;75;21044;-46
2022/03/05 00:43:15;;;;;;;10.38;7.30;;;4.90;83.80;;;;;;1882326;76;21064;-45
2022/03/05 00:45:45;;;;;;;8.90;6.53;;;4.90;83.70;;;;;;1882320;75;21056;-46
2022/03/05 00:48:14;;;;;;;13.10;7.35;;;4.90;84.00;;;;;;1882353;76;21029;-48
2022/03/05 00:50:44;;;;;;;10.40;6.75;;;4.90;83.90;;;;;;1882386;76;21020;-46
2022/03/05 00:53:17;;;;;;;12.10;6.50;;;4.90;83.90;;;;;;1882348;76;21024;-46
2022/03/05 00:55:45;;;;;;;9.98;5.47;;;4.90;83.70;;;;;;1882403;75;21087;-47
2022/03/05 00:58:14;;;;;;;9.88;6.70;;;4.80;84.10;;;;;;1882470;76;21040;-46
2022/03/05 01:00:44;;;;;;;9.33;6.53;;;4.80;83.90;;;;;;1882372;75;21044;-46
2022/03/05 01:03:13;;;;;;;11.78;6.62;;;4.80;83.90;;;;;;1882361;76;21102;-46
2022/03/05 01:05:43;;;;;;;7.08;5.10;;;4.80;84.00;;;;;;1882406;76;21032;-47
2022/03/05 01:08:12;;;;;;;8.23;5.78;;;4.80;84.20;;;;;;1882397;75;21100;-47
2022/03/05 01:10:41;;;;;;;9.35;5.90;;;4.80;84.00;;;;;;1882402;76;21009;-47
2022/03/05 01:13:11;;;;;;;12.05;6.60;;;4.80;84.10;;;;;;1882315;76;21076;-46
2022/03/05 01:15:40;;;;;;;12.65;7.25;;;4.80;84.20;;;;;;1882368;76;21016;-47
2022/03/05 01:18:11;;;;;;;9.50;6.65;;;4.80;84.20;;;;;;1882462;76;21048;-46
2022/03/05 01:20:40;;;;;;;11.53;6.58;;;4.80;84.20;;;;;;1882511;76;21028;-46
2022/03/05 01:23:10;;;;;;;10.23;6.22;;;4.80;84.40;;;;;;1882427;76;21032;-45
2022/03/05 01:25:39;;;;;;;9.98;6.78;;;4.80;84.50;;;;;;1882492;76;21024;-46
2022/03/05 01:28:08;;;;;;;8.83;6.60;;;4.80;84.40;;;;;;1882331;76;21028;-45
2022/03/05 01:30:37;;;;;;;9.03;6.00;;;4.80;84.40;;;;;;1882495;76;21008;-47
2022/03/05 01:33:07;;;;;;;12.73;7.35;;;4.80;84.70;;;;;;1882431;76;21032;-46
2022/03/05 01:35:36;;;;;;;8.65;6.45;;;4.80;84.50;;;;;;1882359;76;21021;-47
2022/03/05 01:38:06;;;;;;;9.13;5.90;;;4.90;84.20;;;;;;1882435;76;21044;-46
2022/03/05 01:40:35;;;;;;;11.38;7.05;;;4.90;84.40;;;;;;1882485;76;21071;-46
2022/03/05 01:43:04;;;;;;;8.98;6.33;;;4.90;84.50;;;;;;1882457;76;21033;-48
2022/03/05 01:45:34;;;;;;;8.25;5.35;;;4.90;83.90;;;;;;1882370;76;21028;-46
2022/03/05 01:48:03;;;;;;;8.93;6.00;;;4.90;83.80;;;;;;1882316;75;21086;-46
2022/03/05 01:50:33;;;;;;;9.88;6.28;;;4.90;84.10;;;;;;1882451;76;21044;-46
2022/03/05 01:53:03;;;;;;;9.05;5.87;;;4.90;84.10;;;;;;1882529;76;21032;-47
2022/03/05 01:55:32;;;;;;;10.10;6.10;;;4.80;84.10;;;;;;1882485;76;21028;-46
2022/03/05 01:58:02;;;;;;;10.63;6.12;;;4.80;84.00;;;;;;1882304;76;21083;-48
2022/03/05 02:00:31;;;;;;;10.40;5.85;;;4.80;84.30;;;;;;1882454;76;21033;-46
2022/03/05 02:03:01;;;;;;;10.03;6.15;;;4.80;83.80;;;;;;1882443;76;21020;-46
2022/03/05 02:05:30;;;;;;;10.63;6.25;;;4.80;83.80;;;;;;1882421;76;21056;-47
2022/03/05 02:08:00;;;;;;;11.28;6.45;;;4.80;84.00;;;;;;1882341;76;21118;-46
2022/03/05 02:10:29;;;;;;;12.50;6.62;;;4.80;84.10;;;;;;1882368;76;21048;-46
2022/03/05 02:12:59;;;;;;;11.53;7.22;;;4.80;84.10;;;;;;1882304;75;21032;-46
2022/03/05 02:15:28;;;;;;;8.98;6.37;;;4.80;84.30;;;;;;1873940;76;21118;-45
2022/03/05 02:17:58;;;;;;;11.00;6.90;;;4.80;84.60;;;;;;1872920;76;21032;-47
2022/03/05 02:20:30;;;;;;;10.95;6.42;;;4.80;84.60;;;;;;1872973;76;21096;-45
2022/03/05 02:23:00;;;;;;;9.18;6.28;;;4.80;84.40;;;;;;1872911;77;20997;-47
2022/03/05 02:25:29;;;;;;;10.43;6.67;;;4.90;84.70;;;;;;1872845;77;21087;-46
2022/03/05 02:27:59;;;;;;;10.78;6.60;;;4.90;84.40;;;;;;1872950;76;21033;-46
2022/03/05 02:30:29;;;;;;;8.73;5.80;;;4.80;84.30;;;;;;1872822;76;21037;-46
2022/03/05 02:32:58;;;;;;;9.80;6.17;;;4.80;84.50;;;;;;1872828;76;21033;-46
2022/03/05 02:35:27;;;;;;;10.45;5.72;;;4.90;84.40;;;;;;1872868;76;21052;-46
2022/03/05 02:37:56;;;;;;;8.28;6.05;;;4.80;84.00;;;;;;1872906;77;21500;-47
2022/03/05 02:40:26;;;;;;;11.50;6.37;;;4.80;84.20;;;;;;1872984;77;21068;-48
2022/03/05 02:42:55;;;;;;;7.12;5.67;;;4.80;84.40;;;;;;1872920;76;21146;-47
2022/03/05 02:45:25;;;;;;;7.47;5.80;;;4.80;84.20;;;;;;1872878;76;21152;-46
2022/03/05 02:47:54;;;;;;;8.98;5.92;;;4.80;84.10;;;;;;1872852;76;21094;-46
2022/03/05 02:50:23;;;;;;;10.55;6.67;;;4.80;84.30;;;;;;1872901;77;21029;-46
2022/03/05 02:52:53;;;;;;;6.67;4.28;;;4.80;84.20;;;;;;1872880;76;21098;-47
2022/03/05 02:55:22;;;;;;;10.85;6.40;;;4.80;84.40;;;;;;1872888;77;21032;-47
2022/03/05 02:57:51;;;;;;;10.18;6.20;;;4.80;84.50;;;;;;1872776;76;21025;-46
2022/03/05 03:00:20;;;;;;;10.00;5.75;;;4.80;84.60;;;;;;1872895;77;21009;-46
2022/03/05 03:02:50;;;;;;;10.13;6.78;;;4.80;84.70;;;;;;1872941;76;21048;-47
2022/03/05 03:05:19;;;;;;;9.50;6.70;;;4.80;84.60;;;;;;1872987;77;21028;-46
2022/03/05 03:07:49;;;;;;;12.68;6.22;;;4.80;84.80;;;;;;1872877;77;21023;-46
2022/03/05 03:10:19;;;;;;;11.22;6.87;;;4.90;84.70;;;;;;1872834;77;21558;-45
2022/03/05 03:12:49;;;;;;;9.33;5.47;;;4.90;84.80;;;;;;1872809;76;21029;-46
2022/03/05 03:15:18;;;;;;;10.05;6.97;;;4.90;84.40;;;;;;1872868;75;21127;-47
2022/03/05 03:17:51;;;;;;;9.05;6.65;;;4.90;84.80;;;;;;1872810;77;21033;-45
2022/03/05 03:20:23;;;;;;;9.63;5.47;;;5.00;84.40;;;;;;1872867;77;21033;-46
2022/03/05 03:22:53;;;;;;;10.25;6.10;;;5.00;84.60;;;;;;1872751;76;21009;-46
2022/03/05 03:25:22;;;;;;;8.88;5.67;;;5.00;84.40;;;;;;1872873;76;21021;-46
2022/03/05 03:27:52;;;;;;;10.23;6.12;;;5.00;84.50;;;;;;1873102;76;21095;-46
2022/03/05 03:30:21;;;;;;;9.68;6.90;;;5.00;84.60;;;;;;1872921;77;21009;-46
2022/03/05 03:32:52;;;;;;;7.10;4.80;;;5.00;84.60;;;;;;1872989;77;21099;-46
2022/03/05 03:35:21;;;;;;;8.13;6.28;;;5.00;84.60;;;;;;1872799;77;21086;-47
2022/03/05 03:37:51;;;;;;;10.88;5.78;;;5.00;84.60;;;;;;1873064;77;21028;-46
2022/03/05 03:40:20;;;;;;;9.15;5.53;;;5.00;84.30;;;;;;1872949;77;21029;-46
2022/03/05 03:42:51;;;;;;;10.13;5.53;;;5.00;84.60;;;;;;1873039;75;21464;-47
2022/03/05 03:45:21;;;;;;;13.93;6.40;;;5.00;84.40;;;;;;1872930;77;21095;-47
2022/03/05 03:47:52;;;;;;;10.30;6.92;;;5.00;84.60;;;;;;1872949;77;21005;-46
2022/03/05 03:50:23;;;;;;;9.65;6.17;;;5.10;84.70;;;;;;1872964;77;21028;-47
2022/03/05 03:52:53;;;;;;;11.73;7.28;;;5.10;84.90;;;;;;1872892;77;21095;-47
2022/03/05 03:55:23;;;;;;;9.28;5.45;;;5.10;85.00;;;;;;1872971;77;21025;-46
2022/03/05 03:57:52;;;;;;;8.95;5.35;;;5.10;84.80;;;;;;1872978;76;21008;-46
2022/03/05 04:00:23;;;;;;;9.83;5.83;;;5.10;84.80;;;;;;1872865;77;21095;-48
2022/03/05 04:02:52;;;;;;;8.83;5.62;;;5.10;85.00;;;;;;1873018;75;21001;-47
2022/03/05 04:05:22;;;;;;;10.68;5.87;;;5.20;85.00;;;;;;1873035;77;21119;-47
2022/03/05 04:10:39;;;;;;;9.80;5.12;;;5.20;84.60;;;;;;1872907;76;21036;-47
2022/03/05 04:13:08;;;;;;;9.65;5.80;;;5.10;84.60;;;;;;1872834;77;21028;-46
2022/03/05 04:15:38;;;;;;;8.05;5.08;;;5.10;84.20;;;;;;1872952;76;21080;-46
2022/03/05 04:18:07;;;;;;;13.32;8.55;;;5.10;84.30;;;;;;1872928;75;21126;-46
2022/03/05 04:20:37;;;;;;;11.05;7.47;;;5.10;84.30;;;;;;1872922;76;21090;-46
2022/03/05 04:23:06;;;;;;;8.80;6.22;;;5.00;84.20;;;;;;1872943;77;21329;-48
2022/03/05 04:25:36;;;;;;;10.08;6.17;;;5.00;84.30;;;;;;1873050;76;21091;-47
2022/03/05 04:28:05;;;;;;;9.03;5.00;;;5.00;85.00;;;;;;1872948;77;21110;-47
2022/03/05 04:30:35;;;;;;;8.15;4.92;;;5.00;84.40;;;;;;1873119;77;21033;-48
2022/03/05 04:33:04;;;;;;;8.60;5.42;;;5.00;83.90;;;;;;1872912;77;21017;-47
2022/03/05 04:35:34;;;;;;;7.45;5.33;;;5.00;84.30;;;;;;1872904;77;21048;-46
2022/03/05 04:38:03;;;;;;;9.63;5.03;;;5.00;84.50;;;;;;1872899;77;21025;-47
2022/03/05 04:40:32;;;;;;;6.40;3.77;;;5.00;83.90;;;;;;1872899;77;21064;-47
2022/03/05 04:43:01;;;;;;;6.62;5.47;;;5.00;83.80;;;;;;1872896;77;21029;-47
2022/03/05 04:45:31;;;;;;;6.33;4.97;;;5.00;83.70;;;;;;1872977;77;21107;-47
2022/03/05 04:48:00;;;;;;;8.33;5.05;;;5.00;83.60;;;;;;1872848;77;21123;-46
2022/03/05 04:50:30;;;;;;;6.70;4.75;;;5.00;83.20;;;;;;1872968;76;21029;-46
2022/03/05 04:52:59;;;;;;;7.00;4.83;;;5.00;83.20;;;;;;1872915;76;21161;-45
2022/03/05 04:55:29;;;;;;;5.92;4.33;;;5.10;83.10;;;;;;1873022;76;21024;-46
2022/03/05 04:57:58;;;;;;;7.30;4.78;;;5.10;82.90;;;;;;1872888;77;21029;-46
2022/03/05 05:00:27;;;;;;;5.75;4.42;;;5.10;82.60;;;;;;1872918;76;21008;-47
2022/03/05 05:02:56;;;;;;;8.50;4.70;;;5.10;82.40;;;;;;1872922;75;21032;-45
2022/03/05 05:05:26;;;;;;;6.25;3.95;;;5.10;82.80;;;;;;1872918;76;21033;-47
2022/03/05 05:07:55;;;;;;;7.42;4.10;;;5.10;82.70;;;;;;1872846;77;21162;-45
2022/03/05 05:10:25;;;;;;;5.60;4.17;;;5.10;82.30;;;;;;1872861;77;21033;-46
2022/03/05 05:12:54;;;;;;;6.80;4.33;;;5.10;82.10;;;;;;1872841;76;21033;-45
2022/03/05 05:15:23;;;;;;;6.95;4.20;;;5.20;82.60;;;;;;1873729;75;21052;-46
2022/03/05 05:17:53;;;;;;;7.37;4.67;;;5.10;82.30;;;;;;1882458;75;21060;-45
2022/03/05 05:20:22;;;;;;;7.25;4.97;;;5.20;83.10;;;;;;1882342;75;21064;-48
2022/03/05 05:22:51;;;;;;;7.97;4.60;;;5.20;82.90;;;;;;1882302;76;21041;-47
2022/03/05 05:25:20;;;;;;;7.65;4.37;;;5.30;82.50;;;;;;1882355;76;21090;-46
2022/03/05 05:27:50;;;;;;;7.42;4.85;;;5.30;82.40;;;;;;1882429;75;21118;-46
2022/03/05 05:30:19;;;;;;;6.62;4.42;;;5.40;82.20;;;;;;1882432;75;21032;-46
2022/03/05 05:32:48;;;;;;;5.55;4.28;;;5.40;82.20;;;;;;1882406;76;21039;-45
2022/03/05 05:35:17;;;;;;;6.95;3.77;;;5.40;82.00;;;;;;1882428;75;21076;-46
2022/03/05 05:37:47;;;;;;;5.60;4.03;;;5.50;81.90;;;;;;1882393;75;21063;-47
2022/03/05 05:40:16;;;;;;;14.47;4.85;;;5.50;82.50;;;;;;1882388;75;21016;-46
2022/03/05 05:42:46;;;;;;;6.60;3.80;;;5.60;82.70;;;;;;1882373;76;21521;-48
2022/03/05 05:45:15;;;;;;;7.70;3.87;;;5.60;82.00;;;;;;1882375;75;21052;-49
2022/03/05 05:47:44;;;;;;;6.10;3.55;;;5.60;81.90;;;;;;1882359;76;21036;-46
2022/03/05 05:50:13;;;;;;;4.75;2.95;;;5.60;82.00;;;;;;1882265;75;21016;-46
2022/03/05 05:52:43;;;;;;;4.95;3.58;;;5.70;82.00;;;;;;1882153;75;21114;-46
2022/03/05 05:55:12;;;;;;;6.37;3.95;;;5.70;82.10;;;;;;1882430;76;21106;-47
2022/03/05 05:57:41;;;;;;;10.90;3.60;;;5.70;81.90;;;;;;1882383;76;21036;-47
2022/03/05 06:00:11;;;;;;;6.10;3.85;;;5.80;82.10;;;;;;1882388;75;21032;-46
2022/03/05 06:02:45;;;;;;;6.53;4.25;;;5.80;82.20;;;;;;1882454;76;21494;-46
2022/03/05 06:05:14;;;;;;;8.20;4.28;;;5.80;82.30;;;;;;1882328;75;21099;-47
2022/03/05 06:07:44;;;;;;;6.50;3.20;;;5.90;81.90;;;;;;1882378;75;21052;-46
2022/03/05 06:10:13;;;;;;;7.33;3.92;;;5.90;81.60;;;;;;1882437;75;21016;-47
2022/03/05 06:12:44;;;;;;;4.87;3.90;;;5.90;81.40;;;;;;1882356;75;21040;-46
2022/03/05 06:15:13;;;;;;;5.30;3.42;;;6.00;82.00;;;;;;1882408;76;21040;-47
2022/03/05 06:17:45;;;;;;;7.47;4.45;;;6.00;81.80;;;;;;1874860;75;21088;-47
2022/03/05 06:20:15;;;;;;;4.90;3.42;;;6.10;81.90;;;;;;1872820;77;21021;-46
2022/03/05 06:22:44;;;;;;;10.00;4.50;;;6.20;81.70;;;;;;1872872;76;21024;-48
2022/03/05 06:25:14;;;;;;;6.60;4.85;;;6.30;81.30;;;;;;1872959;77;21057;-47
2022/03/05 06:27:43;;;;;;;6.50;4.22;;;6.40;81.60;;;;;;1872866;76;21104;-47
2022/03/05 06:30:13;;;;;;;6.78;3.77;;;6.40;80.70;;;;;;1872823;77;21032;-47
2022/03/05 06:32:43;;;;;;;5.30;4.03;;;6.50;80.80;;;;;;1872808;77;21174;-49
2022/03/05 06:35:12;;;;;;;8.08;3.85;;;6.50;79.70;;;;;;1872881;77;21016;-48
2022/03/05 06:37:41;;;;;;;6.30;4.83;;;6.50;79.80;;;;;;1872831;76;21033;-47
2022/03/05 06:40:12;;;;;;;9.73;4.28;;;6.50;80.20;;;;;;1872798;77;21049;-46
2022/03/05 06:42:41;;;;;;;12.28;5.40;;;6.50;80.00;;;;;;1872765;75;21028;-46
2022/03/05 06:45:11;;;;;;;6.55;4.75;;;6.50;79.10;;;;;;1872937;77;21435;-47
2022/03/05 06:47:41;;;;;;;8.43;4.80;;;6.50;79.30;;;;;;1872925;76;21025;-48
2022/03/05 06:50:11;;;;;;;7.85;4.78;;;6.50;79.90;;;;;;1871408;77;21103;-49
2022/03/05 06:52:42;;;;;;;7.15;3.80;;;6.50;79.60;;;;;;1872201;77;21020;-46
2022/03/05 06:55:16;;;;;;;5.55;3.80;;;6.50;78.20;;;;;;1872400;76;21009;-47
2022/03/05 06:57:43;;;;;;;9.38;3.90;;;6.50;78.30;;;;;;1871213;75;21926;-52
2022/03/05 07:00:14;;;;;;;5.72;3.62;;;6.50;78.90;;;;;;1872260;75;21100;-47
2022/03/05 07:02:44;;;;;;;7.08;4.12;;;6.60;78.00;;;;;;1872435;77;21098;-48
2022/03/05 07:05:13;;;;;;;8.38;4.58;;;6.70;78.50;;;;;;1872194;76;21013;-49
2022/03/05 07:07:42;;;;;;;6.40;3.52;;;6.70;78.90;;;;;;1872307;77;21016;-48
2022/03/05 07:10:12;;;;;;;2.98;2.08;;;6.70;77.50;;;;;;1872232;75;21122;-50
2022/03/05 07:12:42;;;;;;;4.35;2.87;;;6.70;76.50;;;;;;1872184;77;21041;-49
2022/03/05 07:15:11;;;;;;;3.75;2.62;;;6.70;75.00;;;;;;1872207;77;21157;-48
2022/03/05 07:17:49;;;;;;;6.17;3.15;;;6.70;75.50;;;;;;1877291;76;21185;-47
2022/03/05 07:20:18;;;;;;;5.87;4.22;;;6.60;75.40;;;;;;1881570;76;21020;-48
2022/03/05 07:22:48;;;;;;;8.23;4.28;;;6.60;76.00;;;;;;1881756;76;21008;-47
2022/03/05 07:25:17;;;;;;;5.25;3.50;;;6.60;75.70;;;;;;1881565;76;21037;-48
2022/03/05 07:27:47;;;;;;;8.55;4.25;;;6.60;76.20;;;;;;1912190;75;21027;-47
2022/03/05 07:30:16;;;;;;;6.33;3.77;;;6.70;75.50;;;;;;1914152;75;21039;-49
2022/03/05 07:32:46;;;;;;;9.43;4.00;;;6.80;76.40;;;;;;1914066;75;21066;-49
2022/03/05 07:35:15;;;;;;;7.17;4.62;;;6.90;75.90;;;;;;1914067;75;21048;-48
2022/03/05 07:37:44;;;;;;;6.55;3.47;;;7.00;73.20;;;;;;1914168;75;21085;-48
2022/03/05 07:40:14;;;;;;;4.90;3.20;;;7.00;69.90;;;;;;1914135;75;21108;-48
2022/03/05 07:42:43;;;;;;;5.30;2.85;;;7.10;69.10;;;;;;1914030;75;21092;-49
2022/03/05 07:45:13;;;;;;;4.42;2.75;;;7.00;70.40;;;;;;1914113;75;21067;-51
2022/03/05 07:47:42;;;;;;;5.17;3.10;;;7.00;71.20;;;;;;1914057;75;21031;-49
2022/03/05 07:50:12;;;;;;;4.75;3.47;;;6.90;72.30;;;;;;1914050;75;21092;-50
2022/03/05 07:52:41;;;;;;;5.87;3.22;;;6.90;72.50;;;;;;1913981;75;21023;-52
2022/03/05 07:55:10;;;;;;;3.67;3.20;;;6.90;71.50;;;;;;1914088;75;21019;-54
2022/03/05 07:57:40;;;;;;;6.70;3.77;;;6.90;72.70;;;;;;1914200;75;21046;-51
2022/03/05 08:00:09;;;;;;;6.72;3.70;;;6.90;71.70;;;;;;1913913;75;21011;-51
2022/03/05 08:02:42;;;;;;;11.95;3.95;;;6.90;73.10;;;;;;1914032;75;21522;-52
2022/03/05 08:05:11;;;;;;;4.83;3.27;;;6.90;73.30;;;;;;1914144;75;21108;-47
2022/03/05 08:07:41;;;;;;;6.85;2.72;;;6.90;72.50;;;;;;1913992;75;21023;-50
2022/03/05 08:10:10;;;;;;;5.50;3.42;;;6.90;72.50;;;;;;1914017;75;21059;-52
2022/03/05 08:12:39;;;;;;;5.17;3.27;;;7.00;72.60;;;;;;1913970;75;21054;-50
2022/03/05 08:15:09;;;;;;;5.28;2.47;;;7.00;73.00;;;;;;1914131;75;21132;-54
2022/03/05 08:17:49;;;;;;;3.08;2.72;;;7.00;72.10;;;;;;1916356;74;21090;-48
2022/03/05 08:20:19;;;;;;;2.98;2.17;;;7.00;72.20;;;;;;1924061;74;21135;-51
2022/03/05 08:22:49;;;;;;;5.67;2.37;;;7.00;72.50;;;;;;1924085;74;21058;-48
2022/03/05 08:25:19;;;;;;;4.17;3.02;;;7.00;72.70;;;;;;1923891;74;21089;-48
2022/03/05 08:27:48;;;;;;;3.90;2.95;;;7.00;72.00;;;;;;1923876;74;20995;-48
2022/03/05 08:30:20;;;;;;;5.20;3.08;;;6.90;72.30;;;;;;1924021;74;21086;-48
2022/03/05 08:32:49;;;;;;;7.40;3.20;;;6.90;72.70;;;;;;1923749;74;21102;-50
2022/03/05 08:35:20;;;;;;;5.25;3.08;;;6.90;73.60;;;;;;1923959;74;21336;-55
2022/03/05 08:37:49;;;;;;;4.10;2.33;;;6.90;73.70;;;;;;1923558;74;21077;-49
2022/03/05 08:40:19;;;;;;;3.40;2.65;;;6.90;73.50;;;;;;1922260;74;21140;-48
2022/03/05 08:42:49;;;;;;;4.70;2.65;;;6.90;73.70;;;;;;1922024;74;21151;-50
2022/03/05 08:45:19;;;;;;;12.53;4.05;;;6.90;73.30;;;;;;1922872;74;21136;-52
2022/03/05 08:47:48;;;;;;;5.30;3.85;;;7.00;73.60;;;;;;1923409;74;21464;-50
2022/03/05 08:50:18;;;;;;;5.83;3.45;;;7.00;73.70;;;;;;1922270;74;21078;-51
2022/03/05 08:52:47;;;;;;;4.62;3.27;;;7.00;74.40;;;;;;1923045;74;21034;-55
2022/03/05 08:55:16;;;;;;;6.05;3.85;;;7.00;74.10;;;;;;1923316;74;21461;-53
2022/03/05 08:57:45;;;;;;;5.95;4.25;;;7.10;74.70;;;;;;1923170;74;21023;-48
2022/03/05 09:00:16;;;;;;;5.08;3.22;;;7.10;74.70;;;;;;1923225;74;21520;-51
2022/03/05 09:02:46;;;;;;;7.37;3.22;;;7.20;74.80;;;;;;1923006;74;21132;-51
2022/03/05 09:05:15;;;;;;;3.10;2.50;;;7.20;75.70;;;;;;1923153;74;21101;-53
2022/03/05 09:07:45;;;;;;;4.37;2.95;;;7.30;76.30;;;;;;1924057;74;21070;-53
2022/03/05 09:10:15;;;;;;;3.85;2.55;;;7.30;76.30;;;;;;1923856;74;21113;-52
2022/03/05 09:12:44;;;;;;;4.22;2.42;;;7.30;76.50;;;;;;1923990;74;21054;-52
2022/03/05 09:15:13;;;;;;;3.52;2.30;;;7.30;76.40;;;;;;1924182;74;21039;-50
2022/03/05 09:17:43;;;;;;;5.35;2.83;;;7.40;77.10;;;;;;1923824;74;21170;-50
2022/03/05 09:20:13;;;;;;;5.08;2.62;;;7.30;77.00;;;;;;1923933;74;21081;-51
2022/03/05 09:22:42;;;;;;;11.50;7.75;;;7.30;77.30;;;;;;1924026;74;21154;-51
2022/03/05 09:25:12;;;;;;;4.08;2.80;;;7.20;77.70;;;;;;1923943;74;21065;-52
2022/03/05 09:27:42;;;;;;;4.53;2.20;;;7.20;78.20;;;;;;1924151;74;21127;-49
2022/03/05 09:30:12;;;;;;;3.12;2.17;;;7.20;78.20;;;;;;1916494;74;21099;-51
2022/03/05 09:32:41;;;;;;;8.63;3.20;;;7.20;78.00;;;;;;1890754;76;21407;-50
2022/03/05 09:35:11;;;;;;;5.37;2.30;;;7.20;78.50;;;;;;1891049;74;21084;-50
2022/03/05 09:37:41;;;;;;;3.75;2.20;;;7.20;78.70;;;;;;1890721;76;21141;-49
2022/03/05 09:40:11;;;;;;;4.55;2.27;;;7.20;78.80;;;;;;1890813;76;21091;-48
2022/03/05 09:42:44;;;;;;;2.77;1.90;;;7.20;78.60;;;;;;1890970;76;21079;-49
2022/03/05 09:45:15;;;;;;;5.10;2.12;;;7.20;78.60;;;;;;1890885;75;21098;-47
2022/03/05 09:47:45;;;;;;;3.47;2.45;;;7.20;78.80;;;;;;1891086;76;21032;-49
2022/03/05 09:50:15;;;;;;;4.50;2.40;;;7.20;78.80;;;;;;1890872;76;21067;-51
2022/03/05 09:52:44;;;;;;;3.70;2.45;;;7.20;79.00;;;;;;1890813;74;21071;-48
2022/03/05 09:55:13;;;;;;;3.15;2.35;;;7.20;79.20;;;;;;1890863;76;21419;-50
2022/03/05 09:57:43;;;;;;;6.50;2.90;;;7.20;79.20;;;;;;1890926;75;21106;-51
2022/03/05 10:00:12;;;;;;;5.00;3.25;;;7.20;79.50;;;;;;1890937;76;21126;-46
2022/03/05 10:02:42;;;;;;;5.45;3.30;;;7.30;79.50;;;;;;1890997;76;21090;-47
2022/03/05 10:05:19;;;;;;;5.78;2.60;;;7.30;79.30;;;;;;1890978;76;21114;-52
2022/03/05 10:08:12;;;;;;;2.70;2.22;;;7.30;79.00;;;;;;1890763;76;21083;-49
2022/03/05 10:10:46;;;;;;;2.72;2.37;;;7.30;79.00;;;;;;1890047;75;21119;-52
2022/03/05 10:13:21;;;;;;;3.55;2.70;;;7.40;79.20;;;;;;1886873;75;21086;-52
2022/03/05 10:15:51;;;;;;;8.70;3.37;;;7.50;79.30;;;;;;1891048;76;21443;-49
2022/03/05 10:18:28;;;;;;;7.58;4.10;;;7.60;79.10;;;;;;1890966;75;21129;-55
2022/03/05 10:21:00;;;;;;;7.10;4.03;;;7.60;75.10;;;;;;1890971;76;21098;-52
2022/03/05 10:23:32;;;;;;;4.12;2.22;;;7.70;73.00;;;;;;1890704;76;21317;-53
2022/03/05 10:26:04;;;;;;;10.80;3.05;;;7.80;72.30;;;;;;1891108;76;21016;-50
2022/03/05 10:28:34;;;;;;;4.65;2.35;;;7.90;72.00;;;;;;1890915;76;21137;-51
2022/03/05 10:31:08;;;;;;;6.28;2.87;;;7.90;69.00;;;;;;1892491;74;21021;-54
2022/03/05 10:33:39;;;;;;;7.97;2.83;;;7.90;68.40;;;;;;1895311;74;21022;-53
2022/03/05 10:36:19;;;;;;;9.68;3.83;;;7.90;68.60;;;;;;1890982;76;21127;-49
2022/03/05 10:38:54;;;;;;;4.03;2.60;;;7.90;68.90;;;;;;1890746;76;21159;-49
2022/03/05 10:41:34;;;;;;;4.62;2.35;;;7.90;66.90;;;;;;1891125;76;21046;-54
2022/03/05 10:44:13;;;;;;;10.43;3.22;;;7.90;66.40;;;;;;1890911;76;21042;-46
2022/03/05 10:46:44;;;;;;;6.50;3.12;;;7.90;68.40;;;;;;1890882;76;21042;-49
2022/03/05 10:49:22;;;;;;;29.77;3.35;;;7.90;69.10;;;;;;1890959;76;21034;-49
2022/03/05 10:52:03;;;;;;;6.90;3.00;;;7.90;68.10;;;;;;1890762;76;21096;-48
2022/03/05 10:54:42;;;;;;;7.15;1.95;;;7.90;66.30;;;;;;1890918;76;21042;-48
2022/03/05 10:57:16;;;;;;;4.10;2.87;;;7.90;65.70;;;;;;1890070;75;21108;-53
2022/03/05 10:59:50;;;;;;;9.55;2.90;;;7.90;64.90;;;;;;1890832;76;21123;-48
2022/03/05 11:02:21;;;;;;;7.67;2.58;;;7.90;63.70;;;;;;1891128;76;21061;-52
2022/03/05 11:04:51;;;;;;;4.35;2.10;;;7.90;63.20;;;;;;1890923;76;21049;-52
2022/03/05 11:07:22;;;;;;;8.43;2.42;;;7.80;64.90;;;;;;1890783;76;21014;-54
2022/03/05 11:09:54;;;;;;;5.95;3.52;;;7.80;66.00;;;;;;1891689;76;21034;-49
2022/03/05 11:12:24;;;;;;;5.53;3.95;;;7.90;66.70;;;;;;1891643;76;21112;-49
2022/03/05 11:14:53;;;;;;;13.98;3.40;;;8.00;66.10;;;;;;1891674;76;21088;-50
2022/03/05 11:17:22;;;;;;;4.50;2.87;;;8.00;64.80;;;;;;1891631;76;21098;-48
2022/03/05 11:19:52;;;;;;;4.40;2.40;;;8.20;65.40;;;;;;1884988;75;21063;-49
2022/03/05 11:22:22;;;;;;;4.55;2.62;;;8.20;65.10;;;;;;1872939;75;21035;-50
2022/03/05 11:24:51;;;;;;;2.85;2.00;;;8.30;65.20;;;;;;1873004;77;21003;-51
2022/03/05 11:27:20;;;;;;;6.72;2.98;;;8.30;64.50;;;;;;1872867;76;21062;-51
2022/03/05 11:30:00;;;;;;;4.35;2.75;;;8.30;65.10;;;;;;1872994;77;21078;-48
2022/03/05 11:32:31;;;;;;;4.22;2.45;;;8.30;65.50;;;;;;1872900;77;21050;-47
2022/03/05 11:35:01;;;;;;;3.62;2.45;;;8.20;65.80;;;;;;1872806;76;21093;-50
2022/03/05 11:37:38;;;;;;;4.58;1.80;;;8.20;63.50;;;;;;1872772;76;21136;-49
2022/03/05 11:40:10;;;;;;;2.95;2.08;;;8.10;63.00;;;;;;1873035;76;21085;-50
2022/03/05 11:42:40;;;;;;;4.25;2.50;;;8.00;63.20;;;;;;1871041;76;21453;-49
2022/03/05 11:45:34;;;;;;;5.53;3.30;;;8.00;63.20;;;;;;1872854;77;21027;-52
2022/03/05 11:48:23;;;;;;;14.78;3.40;;;8.00;64.10;;;;;;1871498;76;21086;-49
2022/03/05 11:50:54;;;;;;;7.15;3.15;;;8.00;64.30;;;;;;1851847;77;21089;-50
2022/03/05 11:53:24;;;;;;;11.33;3.42;;;8.00;64.20;;;;;;1872806;77;21002;-50
2022/03/05 11:55:53;;;;;;;3.83;2.37;;;8.00;63.90;;;;;;1872913;76;21039;-50
2022/03/05 11:58:31;;;;;;;2.77;2.12;;;8.00;62.60;;;;;;1872809;76;21038;-50
2022/03/05 12:01:02;;;;;;;9.88;3.02;;;8.00;61.70;;;;;;1872898;76;21023;-50
2022/03/05 12:03:39;;;;;;;9.30;2.85;;;8.00;62.90;;;;;;1871009;77;21104;-51
2022/03/05 12:06:08;;;;;;;10.03;3.37;;;7.90;63.00;;;;;;1872747;75;21003;-47
2022/03/05 12:08:40;;;;;;;9.53;4.03;;;7.90;63.80;;;;;;1873041;77;21042;-50
2022/03/05 12:11:11;;;;;;;6.17;2.72;;;7.90;63.80;;;;;;1872751;77;21098;-49
2022/03/05 12:13:45;;;;;;;5.80;3.55;;;7.90;64.00;;;;;;1872712;75;21074;-50
2022/03/05 12:16:20;;;;;;;9.30;3.08;;;7.80;64.90;;;;;;1872951;77;21051;-49
2022/03/05 12:18:49;;;;;;;5.72;3.05;;;7.80;64.60;;;;;;1873048;77;21140;-50
2022/03/05 12:21:34;;;;;;;8.13;4.33;;;7.80;65.70;;;;;;1886405;75;21069;-49
2022/03/05 12:24:08;;;;;;;7.23;2.97;;;7.70;66.30;;;;;;1892292;76;21401;-48
2022/03/05 12:26:43;;;;;;;7.50;3.27;;;7.70;65.70;;;;;;1891844;75;21439;-49
2022/03/05 12:29:13;;;;;;;2.45;1.90;;;7.70;66.80;;;;;;1892003;76;21030;-47
2022/03/05 12:31:43;;;;;;;7.78;4.08;;;7.70;66.60;;;;;;1891805;76;21007;-50
2022/03/05 12:34:13;;;;;;;5.47;3.65;;;7.60;66.80;;;;;;1891795;76;21022;-49
2022/03/05 12:36:48;;;;;;;3.67;3.00;;;7.60;66.80;;;;;;1891839;76;21006;-52
2022/03/05 12:39:17;;;;;;;3.90;3.27;;;7.60;67.10;;;;;;1892163;76;21035;-49
2022/03/05 12:41:46;;;;;;;4.92;3.02;;;7.50;67.40;;;;;;1891857;76;21136;-48
2022/03/05 12:44:16;;;;;;;7.35;4.08;;;7.50;67.50;;;;;;1891966;76;21030;-48
2022/03/05 12:46:45;;;;;;;6.42;3.98;;;7.50;68.30;;;;;;1891964;76;21124;-49
2022/03/05 12:49:16;;;;;;;7.80;3.22;;;7.50;68.90;;;;;;1892037;76;21088;-49
2022/03/05 12:51:45;;;;;;;6.33;3.60;;;7.40;69.20;;;;;;1891860;76;21155;-50
2022/03/05 12:54:14;;;;;;;7.20;3.87;;;7.40;69.10;;;;;;1892049;76;21093;-52
2022/03/05 12:56:44;;;;;;;5.15;3.80;;;7.40;69.00;;;;;;1891997;76;21030;-52
2022/03/05 12:59:15;;;;;;;5.72;3.95;;;7.40;69.20;;;;;;1891911;76;21081;-49
2022/03/05 13:01:44;;;;;;;5.17;3.58;;;7.30;69.10;;;;;;1891970;76;21095;-49
2022/03/05 13:04:17;;;;;;;9.98;3.80;;;7.30;69.40;;;;;;1891831;75;21026;-51
2022/03/05 13:06:49;;;;;;;5.20;4.00;;;7.30;69.90;;;;;;1891896;76;21002;-51
2022/03/05 13:09:18;;;;;;;7.40;4.80;;;7.30;70.00;;;;;;1892002;76;21100;-49
2022/03/05 13:11:50;;;;;;;3.77;2.60;;;7.30;70.00;;;;;;1891835;76;21029;-50
2022/03/05 13:14:24;;;;;;;9.75;4.50;;;7.30;69.60;;;;;;1891914;76;21088;-48